createdAt,value
2023-04-10T00:01:12.417Z,7.49
2023-04-10T00:04:16.323Z,7.37
2023-04-10T00:07:18.863Z,7.37
2023-04-10T00:10:22.902Z,7.42
2023-04-10T00:13:25.208Z,7.47
2023-04-10T00:16:28.129Z,7.47
2023-04-10T00:19:30.521Z,7.41
2023-04-10T00:22:33.396Z,7.32
2023-04-10T00:25:37.468Z,7.41
2023-04-10T00:28:40.739Z,7.40
2023-04-10T00:31:43.629Z,7.36
2023-04-10T00:34:46.409Z,7.44
2023-04-10T00:37:50.720Z,7.47
2023-04-10T00:40:53.015Z,7.46
2023-04-10T00:43:57.579Z,7.40
2023-04-10T00:47:00.420Z,7.30
2023-04-10T00:50:02.786Z,7.16
2023-04-10T00:53:05.824Z,7.12
2023-04-10T00:56:09.669Z,6.81
2023-04-10T00:59:14.000Z,7.10
2023-04-10T01:02:16.899Z,7.04
2023-04-10T01:05:19.700Z,7.02
2023-04-10T01:08:33.632Z,7.07
2023-04-10T01:11:59.166Z,7.03
2023-04-10T01:15:15.619Z,7.07
2023-04-10T01:18:41.716Z,7.10
2023-04-10T01:21:44.557Z,7.09
2023-04-10T01:25:36.217Z,7.09
2023-04-10T01:28:53.429Z,7.08
2023-04-10T01:32:03.974Z,7.05
2023-04-10T01:35:09.014Z,7.00
2023-04-10T01:38:12.823Z,6.94
2023-04-10T01:41:16.356Z,6.76
2023-04-10T01:44:22.831Z,6.98
2023-04-10T01:47:27.314Z,6.92
2023-04-10T01:50:31.940Z,6.63
2023-04-10T01:53:37.734Z,6.90
2023-04-10T01:56:41.782Z,6.90
2023-04-10T01:59:46.141Z,6.95
2023-04-10T02:02:50.176Z,6.96
2023-04-10T02:05:54.139Z,7.09
2023-04-10T02:09:11.103Z,7.04
2023-04-10T02:12:18.749Z,7.11
2023-04-10T02:15:23.720Z,6.98
2023-04-10T02:18:27.560Z,6.88
2023-04-10T02:21:29.898Z,6.91
2023-04-10T02:24:34.128Z,6.92
2023-04-10T02:27:38.238Z,7.03
2023-04-10T02:30:40.517Z,6.92
2023-04-10T02:33:45.831Z,6.90
2023-04-10T02:36:48.182Z,6.90
2023-04-10T02:39:50.717Z,6.85
2023-04-10T02:42:53.264Z,6.37
2023-04-10T02:45:57.689Z,6.84
2023-04-10T02:49:03.008Z,6.83
2023-04-10T02:52:05.951Z,6.87
2023-04-10T02:55:08.880Z,6.86
2023-04-10T02:58:15.061Z,6.93
2023-04-10T03:01:18.483Z,6.98
2023-04-10T03:04:23.213Z,6.98
2023-04-10T03:07:26.105Z,7.02
2023-04-10T03:10:29.770Z,6.94
2023-04-10T03:13:32.066Z,7.01
2023-04-10T03:16:34.920Z,7.06
2023-04-10T03:19:39.298Z,7.07
2023-04-10T03:22:42.151Z,6.78
2023-04-10T03:25:51.541Z,7.16
2023-04-10T03:28:53.594Z,7.29
2023-04-10T03:31:56.515Z,7.26
2023-04-10T03:34:59.431Z,7.13
2023-04-10T03:38:02.266Z,7.05
2023-04-10T03:41:06.924Z,7.07
2023-04-10T03:44:11.208Z,7.10
2023-04-10T03:47:13.735Z,7.07
2023-04-10T03:50:19.823Z,7.14
2023-04-10T03:53:36.113Z,7.10
2023-04-10T03:56:41.961Z,7.11
2023-04-10T03:59:44.866Z,7.16
2023-04-10T04:02:52.805Z,7.02
2023-04-10T04:06:15.874Z,7.27
2023-04-10T04:09:38.874Z,7.24
2023-04-10T04:12:55.095Z,7.30
2023-04-10T04:16:11.561Z,6.34
2023-04-10T04:19:29.828Z,7.24
2023-04-10T04:22:52.845Z,7.01
2023-04-10T04:26:14.623Z,7.11
2023-04-10T04:29:50.151Z,7.22
2023-04-10T04:33:20.427Z,7.23
2023-04-10T04:36:39.449Z,7.19
2023-04-10T04:40:11.365Z,7.18
2023-04-10T04:43:33.108Z,7.18
2023-04-10T04:46:44.476Z,7.21
2023-04-10T04:49:57.042Z,7.21
2023-04-10T04:53:18.517Z,7.01
2023-04-10T04:56:43.595Z,7.19
2023-04-10T04:59:55.391Z,7.15
2023-04-10T05:03:16.917Z,7.00
2023-04-10T05:06:36.079Z,7.16
2023-04-10T05:09:54.328Z,7.20
2023-04-10T05:13:18.101Z,7.28
2023-04-10T05:16:51.155Z,7.31
2023-04-10T05:20:13.268Z,7.38
2023-04-10T05:23:39.088Z,7.30
2023-04-10T05:26:50.901Z,7.32
2023-04-10T05:30:06.470Z,7.38
2023-04-10T05:33:11.520Z,7.46
2023-04-10T05:36:33.245Z,7.50
2023-04-10T05:39:54.452Z,7.50
2023-04-10T05:43:28.972Z,7.47
2023-04-10T05:46:37.304Z,7.44
2023-04-10T05:49:57.236Z,7.52
2023-04-10T05:53:31.261Z,7.57
2023-04-10T05:56:52.553Z,7.44
2023-04-10T06:00:25.435Z,7.29
2023-04-10T06:03:47.149Z,7.14
2023-04-10T06:06:51.673Z,7.28
2023-04-10T06:09:54.936Z,7.33
2023-04-10T06:12:58.675Z,7.34
2023-04-10T06:16:01.982Z,7.17
2023-04-10T06:19:07.094Z,7.51
2023-04-10T06:22:10.999Z,7.53
2023-04-10T06:25:14.304Z,7.66
2023-04-10T06:28:17.130Z,7.59
2023-04-10T06:31:23.832Z,7.61
2023-04-10T06:34:26.432Z,7.53
2023-04-10T06:37:34.465Z,7.48
2023-04-10T06:40:39.682Z,7.59
2023-04-10T06:43:42.379Z,7.68
2023-04-10T06:46:45.208Z,7.84
2023-04-10T06:49:48.475Z,8.04
2023-04-10T06:52:53.225Z,8.10
2023-04-10T06:55:55.090Z,8.22
2023-04-10T06:58:58.077Z,8.46
2023-04-10T07:02:00.395Z,8.38
2023-04-10T07:05:02.824Z,8.48
2023-04-10T07:08:05.104Z,8.50
2023-04-10T07:11:07.924Z,8.34
2023-04-10T07:14:10.539Z,8.36
2023-04-10T07:17:13.287Z,8.51
2023-04-10T07:20:16.110Z,8.68
2023-04-10T07:23:19.788Z,8.87
2023-04-10T07:26:22.066Z,8.79
2023-04-10T07:29:24.541Z,9.00
2023-04-10T07:32:27.252Z,9.17
2023-04-10T07:35:29.504Z,9.27
2023-04-10T07:38:34.821Z,9.45
2023-04-10T07:41:37.829Z,9.64
2023-04-10T07:44:39.678Z,9.78
2023-04-10T07:47:41.546Z,9.69
2023-04-10T07:50:43.289Z,9.75
2023-04-10T07:53:45.058Z,9.84
2023-04-10T07:56:47.008Z,9.84
2023-04-10T07:59:48.726Z,9.96
2023-04-10T08:02:55.713Z,10.07
2023-04-10T08:05:57.641Z,10.12
2023-04-10T08:08:59.518Z,10.20
2023-04-10T08:12:01.428Z,10.30
2023-04-10T08:15:03.285Z,10.01
2023-04-10T08:18:05.131Z,9.89
2023-04-10T08:21:07.182Z,10.38
2023-04-10T08:24:09.039Z,10.42
2023-04-10T08:27:10.911Z,10.71
2023-04-10T08:30:13.067Z,10.70
2023-04-10T08:33:15.618Z,10.93
2023-04-10T08:36:19.836Z,10.88
2023-04-10T08:39:22.235Z,11.23
2023-04-10T08:42:24.044Z,11.08
2023-04-10T08:45:25.873Z,11.29
2023-04-10T08:48:32.514Z,11.33
2023-04-10T08:51:47.227Z,11.25
2023-04-10T08:54:54.693Z,11.38
2023-04-10T08:58:00.944Z,11.40
2023-04-10T09:01:08.087Z,11.42
2023-04-10T09:04:14.096Z,11.41
2023-04-10T09:07:16.612Z,11.36
2023-04-10T09:10:18.361Z,11.30
2023-04-10T09:13:39.058Z,11.28
2023-04-10T09:16:41.106Z,11.34
2023-04-10T09:19:44.010Z,11.43
2023-04-10T09:22:45.922Z,11.44
2023-04-10T09:25:49.318Z,11.13
2023-04-10T09:29:05.311Z,11.62
2023-04-10T09:32:07.095Z,11.65
2023-04-10T09:35:14.187Z,11.82
2023-04-10T09:38:17.187Z,12.05
2023-04-10T09:41:18.946Z,12.16
2023-04-10T09:44:29.465Z,12.40
2023-04-10T09:47:31.707Z,12.42
2023-04-10T09:50:43.653Z,12.65
2023-04-10T09:53:51.058Z,12.67
2023-04-10T09:56:53.873Z,12.67
2023-04-10T09:59:57.632Z,12.59
2023-04-10T10:03:02.635Z,12.55
2023-04-10T10:06:05.200Z,12.52
2023-04-10T10:09:07.201Z,12.55
2023-04-10T10:12:11.235Z,12.47
2023-04-10T10:15:21.809Z,12.53
2023-04-10T10:18:31.701Z,12.50
2023-04-10T10:21:34.881Z,12.50
2023-04-10T10:24:40.159Z,12.53
2023-04-10T10:27:42.277Z,12.47
2023-04-10T10:30:45.361Z,12.74
2023-04-10T10:33:47.752Z,12.76
2023-04-10T10:36:50.556Z,12.77
2023-04-10T10:40:11.901Z,12.86
2023-04-10T10:43:21.760Z,12.88
2023-04-10T10:46:39.420Z,12.95
2023-04-10T10:49:54.733Z,12.99
2023-04-10T10:53:00.450Z,13.05
2023-04-10T10:56:21.181Z,13.29
2023-04-10T11:00:01.604Z,13.46
2023-04-10T11:03:16.587Z,13.59
2023-04-10T11:06:20.954Z,13.67
2023-04-10T11:09:45.967Z,13.74
2023-04-10T11:13:17.208Z,13.90
2023-04-10T11:16:21.380Z,14.08
2023-04-10T11:19:26.755Z,14.11
2023-04-10T11:22:28.953Z,14.40
2023-04-10T11:25:54.262Z,14.76
2023-04-10T11:28:56.287Z,14.87
2023-04-10T11:32:00.225Z,15.15
2023-04-10T11:35:04.815Z,15.33
2023-04-10T11:38:13.704Z,15.39
2023-04-10T11:41:18.573Z,15.54
2023-04-10T11:44:31.626Z,15.68
2023-04-10T11:47:33.573Z,15.66
2023-04-10T11:50:36.566Z,15.75
2023-04-10T11:53:41.127Z,15.74
2023-04-10T11:56:44.842Z,15.67
2023-04-10T11:59:50.527Z,15.58
2023-04-10T12:02:53.335Z,15.48
2023-04-10T12:05:57.123Z,15.24
2023-04-10T12:09:01.049Z,15.65
2023-04-10T12:12:05.535Z,15.82
2023-04-10T12:15:29.086Z,15.93
2023-04-10T12:18:31.570Z,15.83
2023-04-10T12:21:36.999Z,15.91
2023-04-10T12:24:54.956Z,15.87
2023-04-10T12:27:56.713Z,15.76
2023-04-10T12:30:58.575Z,15.63
2023-04-10T12:34:08.533Z,15.73
2023-04-10T12:37:11.577Z,15.39
2023-04-10T12:40:14.062Z,15.51
2023-04-10T12:43:31.470Z,15.47
2023-04-10T12:46:33.825Z,15.45
2023-04-10T12:49:35.574Z,15.50
2023-04-10T12:52:41.930Z,15.57
2023-04-10T12:56:03.567Z,15.42
2023-04-10T12:59:08.344Z,15.39
2023-04-10T13:02:10.281Z,15.35
2023-04-10T13:05:12.568Z,15.43
2023-04-10T13:08:14.767Z,15.48
2023-04-10T13:11:16.651Z,15.31
2023-04-10T13:14:18.515Z,15.16
2023-04-10T13:17:27.445Z,15.27
2023-04-10T13:20:30.251Z,14.88
2023-04-10T13:23:32.035Z,15.05
2023-04-10T13:26:33.860Z,15.15
2023-04-10T13:29:37.342Z,15.02
2023-04-10T13:32:39.119Z,14.98
2023-04-10T13:35:41.008Z,14.92
2023-04-10T13:38:42.969Z,15.03
2023-04-10T13:41:44.665Z,14.88
2023-04-10T13:44:46.496Z,15.10
2023-04-10T13:47:48.455Z,15.05
2023-04-10T13:50:50.440Z,15.02
2023-04-10T13:53:52.167Z,14.95
2023-04-10T13:56:54.790Z,15.18
2023-04-10T13:59:56.689Z,15.29
2023-04-10T14:02:58.583Z,15.35
2023-04-10T14:06:01.004Z,15.49
2023-04-10T14:09:02.910Z,15.63
2023-04-10T14:12:04.871Z,15.56
2023-04-10T14:15:07.223Z,15.55
2023-04-10T14:18:09.529Z,15.55
2023-04-10T14:21:11.322Z,15.53
2023-04-10T14:24:13.274Z,15.42
2023-04-10T14:27:15.160Z,15.23
2023-04-10T14:30:16.962Z,15.22
2023-04-10T14:33:20.164Z,15.07
2023-04-10T14:36:22.933Z,14.98
2023-04-10T14:39:25.326Z,15.00
2023-04-10T14:42:27.438Z,14.77
2023-04-10T14:45:29.640Z,14.74
2023-04-10T14:48:31.566Z,14.55
2023-04-10T14:51:33.743Z,14.46
2023-04-10T14:54:35.495Z,14.43
2023-04-10T14:57:37.349Z,14.39
2023-04-10T15:00:39.144Z,14.32
2023-04-10T15:03:40.987Z,14.21
2023-04-10T15:06:43.276Z,14.21
2023-04-10T15:09:46.307Z,14.15
2023-04-10T15:12:48.063Z,14.19
2023-04-10T15:15:50.018Z,14.08
2023-04-10T15:18:52.485Z,14.19
2023-04-10T15:21:57.121Z,14.21
2023-04-10T15:24:59.033Z,14.16
2023-04-10T15:28:02.118Z,14.16
2023-04-10T15:31:04.225Z,14.08
2023-04-10T15:34:06.314Z,14.14
2023-04-10T15:37:08.175Z,14.09
2023-04-10T15:40:10.616Z,14.10
2023-04-10T15:43:13.130Z,14.17
2023-04-10T15:46:17.614Z,14.10
2023-04-10T15:49:29.909Z,14.07
2023-04-10T15:52:38.634Z,14.09
2023-04-10T15:55:40.817Z,14.03
2023-04-10T15:58:45.031Z,14.00
2023-04-10T16:01:49.094Z,13.86
2023-04-10T16:04:52.635Z,13.65
2023-04-10T16:07:55.728Z,13.80
2023-04-10T16:10:57.556Z,13.74
2023-04-10T16:13:59.406Z,13.76
2023-04-10T16:17:01.192Z,13.61
2023-04-10T16:20:06.947Z,13.24
2023-04-10T16:23:10.037Z,13.25
2023-04-10T16:26:11.752Z,13.30
2023-04-10T16:29:18.334Z,13.34
2023-04-10T16:32:20.686Z,13.30
2023-04-10T16:35:22.974Z,13.27
2023-04-10T16:38:24.892Z,13.40
2023-04-10T16:41:27.016Z,13.36
2023-04-10T16:44:29.282Z,13.44
2023-04-10T16:47:31.240Z,13.34
2023-04-10T16:50:37.704Z,13.41
2023-04-10T16:53:41.240Z,13.15
2023-04-10T16:56:42.993Z,12.98
2023-04-10T16:59:44.720Z,13.21
2023-04-10T17:02:47.560Z,13.03
2023-04-10T17:05:49.472Z,12.80
2023-04-10T17:08:51.237Z,13.09
2023-04-10T17:11:56.140Z,13.02
2023-04-10T17:14:57.906Z,12.42
2023-04-10T17:17:59.701Z,12.79
2023-04-10T17:21:01.879Z,12.80
2023-04-10T17:24:05.387Z,12.86
2023-04-10T17:27:07.822Z,12.75
2023-04-10T17:30:12.254Z,12.80
2023-04-10T17:33:14.090Z,12.57
2023-04-10T17:36:16.013Z,12.77
2023-04-10T17:39:17.885Z,12.78
2023-04-10T17:42:19.625Z,12.68
2023-04-10T17:45:23.718Z,12.71
2023-04-10T17:48:25.726Z,12.54
2023-04-10T17:51:27.658Z,12.65
2023-04-10T17:54:29.489Z,12.64
2023-04-10T17:57:31.241Z,12.58
2023-04-10T18:00:36.186Z,12.38
2023-04-10T18:03:37.881Z,12.52
2023-04-10T18:06:40.977Z,12.50
2023-04-10T18:09:42.732Z,12.45
2023-04-10T18:12:44.750Z,12.47
2023-04-10T18:15:46.518Z,12.40
2023-04-10T18:18:48.915Z,12.46
2023-04-10T18:21:51.922Z,12.32
2023-04-10T18:24:53.776Z,12.39
2023-04-10T18:28:12.920Z,12.34
2023-04-10T18:31:16.892Z,12.39
2023-04-10T18:34:19.814Z,12.39
2023-04-10T18:37:21.630Z,12.28
2023-04-10T18:40:24.121Z,12.21
2023-04-10T18:43:28.649Z,12.10
2023-04-10T18:46:32.564Z,12.12
2023-04-10T18:49:34.515Z,12.16
2023-04-10T18:52:36.224Z,11.93
2023-04-10T18:55:37.994Z,12.11
2023-04-10T18:58:41.306Z,12.17
2023-04-10T19:01:43.103Z,12.18
2023-04-10T19:04:44.965Z,12.20
2023-04-10T19:08:00.800Z,12.12
2023-04-10T19:11:07.141Z,12.10
2023-04-10T19:14:10.731Z,12.16
2023-04-10T19:17:12.467Z,11.88
2023-04-10T19:20:14.324Z,12.03
2023-04-10T19:23:16.182Z,11.93
2023-04-10T19:26:24.089Z,11.93
2023-04-10T19:29:28.623Z,11.72
2023-04-10T19:32:50.655Z,11.83
2023-04-10T19:36:01.517Z,11.71
2023-04-10T19:39:05.275Z,11.64
2023-04-10T19:42:07.612Z,11.62
2023-04-10T19:45:15.936Z,11.70
2023-04-10T19:48:24.078Z,11.76
2023-04-10T19:51:47.780Z,10.84
2023-04-10T19:54:51.692Z,11.71
2023-04-10T19:57:56.714Z,11.63
2023-04-10T20:01:03.446Z,11.72
2023-04-10T20:04:05.525Z,11.65
2023-04-10T20:07:10.158Z,11.67
2023-04-10T20:10:12.048Z,11.65
2023-04-10T20:13:16.646Z,11.62
2023-04-10T20:16:21.194Z,11.55
2023-04-10T20:19:26.855Z,11.58
2023-04-10T20:22:30.456Z,11.60
2023-04-10T20:25:33.448Z,11.50
2023-04-10T20:28:35.729Z,11.35
2023-04-10T20:31:37.653Z,11.48
2023-04-10T20:34:39.631Z,11.44
2023-04-10T20:37:41.417Z,11.18
2023-04-10T20:40:43.184Z,11.34
2023-04-10T20:43:46.004Z,11.22
2023-04-10T20:46:51.831Z,11.48
2023-04-10T20:49:55.680Z,11.43
2023-04-10T20:52:59.387Z,11.46
2023-04-10T20:56:05.577Z,11.41
2023-04-10T20:59:11.662Z,11.39
2023-04-10T21:02:13.563Z,11.42
2023-04-10T21:05:15.597Z,11.42
2023-04-10T21:08:21.883Z,11.35
2023-04-10T21:11:23.818Z,11.44
2023-04-10T21:14:25.729Z,11.32
2023-04-10T21:17:31.684Z,11.19
2023-04-10T21:20:36.615Z,11.05
2023-04-10T21:23:38.371Z,10.92
2023-04-10T21:26:40.221Z,10.96
2023-04-10T21:29:42.257Z,10.79
2023-04-10T21:32:44.235Z,10.71
2023-04-10T21:35:53.690Z,10.84
2023-04-10T21:38:56.105Z,10.91
2023-04-10T21:41:59.337Z,10.99
2023-04-10T21:45:04.088Z,10.97
2023-04-10T21:48:06.610Z,10.92
2023-04-10T21:51:08.668Z,10.83
2023-04-10T21:54:35.042Z,10.98
2023-04-10T21:57:38.183Z,10.73
2023-04-10T22:00:42.062Z,10.73
2023-04-10T22:03:44.069Z,10.87
2023-04-10T22:06:46.128Z,10.77
2023-04-10T22:09:49.181Z,10.48
2023-04-10T22:12:52.847Z,10.71
2023-04-10T22:15:54.617Z,10.68
2023-04-10T22:18:56.685Z,10.62
2023-04-10T22:22:00.564Z,10.65
2023-04-10T22:25:02.260Z,10.48
2023-04-10T22:28:07.510Z,10.51
2023-04-10T22:31:16.538Z,10.43
2023-04-10T22:34:18.328Z,10.43
2023-04-10T22:37:20.738Z,10.49
2023-04-10T22:40:24.474Z,10.40
2023-04-10T22:43:26.251Z,10.20
2023-04-10T22:46:28.625Z,10.30
2023-04-10T22:49:30.554Z,10.28
2023-04-10T22:52:34.765Z,10.19
2023-04-10T22:55:40.007Z,10.13
2023-04-10T22:58:41.907Z,9.96
2023-04-10T23:01:43.892Z,9.89
2023-04-10T23:04:47.110Z,9.85
2023-04-10T23:07:48.860Z,9.84
2023-04-10T23:10:55.643Z,9.90
2023-04-10T23:13:57.426Z,9.74
2023-04-10T23:17:00.253Z,9.72
2023-04-10T23:20:02.225Z,9.66
2023-04-10T23:23:04.071Z,9.67
2023-04-10T23:26:06.101Z,9.62
2023-04-10T23:29:07.905Z,9.65
2023-04-10T23:32:09.890Z,9.61
2023-04-10T23:35:11.764Z,9.57
2023-04-10T23:38:15.540Z,9.52
2023-04-10T23:41:17.466Z,9.49
2023-04-10T23:44:19.402Z,9.25
2023-04-10T23:47:21.230Z,9.25
2023-04-10T23:50:25.799Z,9.28
2023-04-10T23:53:27.697Z,9.30
2023-04-10T23:56:32.014Z,9.30
2023-04-10T23:59:35.157Z,9.29
